Terminal Aerodrome Forecast
Issued by NWS Tulsa, OK

Home | Current Version | Previous Version | Text Only | Print | Product List | Glossary On
Versions: 1 2 3 4 5 6 7 8 9 10 11 12 13 14 15 16 17
000
FTUS44 KTSA 301700
TAFFSM
TAF
KFSM 301723Z 3018/3118 34006KT P6SM SCT015 OVC025
      TEMPO 3018/3022 BKN015
     FM302200 35011KT P6SM BKN015
      TEMPO 3111/3115 BKN006
     FM311500 33007KT P6SM BKN012=

USA.gov is the U.S. government's official web portal to all federal, state and local government web resources and services.